マレ の空港の天気 - METARとTAF

マレ国際空港 ( VRMM / MLE ) - モルディブ Hulhule Island, North Male Atoll
飛行場実況気象(Metar)
観測時間12/10 10:00 MVT (12/10 05:00 UTC)
風向・風速東北東 4m/s
視程3000m
天気現象煙霧
少しの雲 雲底高度 580m
全天の8割程度の雲 雲底高度 8230m
気温31℃
湿度70%
気圧1013hPa
METARVRMM 100500Z 07007KT 3000 HZ FEW019 BKN270 31/25 Q1013 NOSIG
過去の天気等 Google飛行場航空写真 Wunderground天気予報

過去48時間のMETAR

飛行場予報(TAF)
発表時間: 12/10 10:00 MVT (12/10 05:00 UTC)
予報対象時間: 10日11時 MVT ~ 11日17時 MVT
風向・風速東北東 4m/s
視程7000m
少しの雲 雲底高度 550m
10日11時 MVT ~ 10日17時 MVT に一時的に
視程3000m
天気現象煙霧
少しの積乱雲 雲底高度 550m
TAF VRMM 100500Z 1006/1112 07008KT 7000 FEW018
TEMPO 1006/1012 3000 HZ FEW018CB